Other Surface Observations
Issued by NWS Missoula, MT

Home | Current Version | Previous Version | Text Only | Print | Product List | Glossary On
Versions: 1 2 3 4 5 6 7 8 9 10 11 12 13 14 15 16 17 18 19 20 21 22 23 24 25 26 27 28 29 30 31 32 33 34 35 36 37 38 39 40 41 42 43 44 45 46 47 48 49 50
000
SXUS55 KMSO 281743
OSOMSO
MONTANA AWOS SUMMARY
NATIONAL WEATHER SERVICE MISSOULA MT
1143 AM MDT FRI AUG 28 2015

Montana AWOS Reports

ROUNDUP     |KRPX 281735Z AUTO 21007KT 15SM 27/07 A2999 RMK AO1 T02720067
MALTA       |KM75 281735Z AUTO 23006KT 7SM 26/08 A2993 RMK AO1 T02560083
LAUREL      |K6S8 281735Z AUTO 19008KT 10SM 26/08 A3010 RMK AO1 T02560083
TWIN BRIDGES|K7S1 281735Z AUTO 18006KT 10SM 21/07 A3017 RMK AO1 T02060072




USA.gov is the U.S. government's official web portal to all federal, state and local government web resources and services.